sensor_id;sensor_type;location;lat;lon;timestamp;temperature;humidity
52034;DHT22;38045;52.988;6.536;2022-08-19T00:01:31;16.10;99.90
52034;DHT22;38045;52.988;6.536;2022-08-19T00:04:00;16.10;99.90
52034;DHT22;38045;52.988;6.536;2022-08-19T00:06:28;16.10;99.90
52034;DHT22;38045;52.988;6.536;2022-08-19T00:08:54;16.10;99.90
52034;DHT22;38045;52.988;6.536;2022-08-19T00:11:20;16.00;99.90
52034;DHT22;38045;52.988;6.536;2022-08-19T00:13:46;16.10;99.90
52034;DHT22;38045;52.988;6.536;2022-08-19T00:16:14;16.20;99.90
52034;DHT22;38045;52.988;6.536;2022-08-19T00:18:39;16.20;99.90
52034;DHT22;38045;52.988;6.536;2022-08-19T00:21:05;16.10;99.90
52034;DHT22;38045;52.988;6.536;2022-08-19T00:23:32;16.00;99.90
52034;DHT22;38045;52.988;6.536;2022-08-19T00:26:00;16.00;99.90
52034;DHT22;38045;52.988;6.536;2022-08-19T00:28:26;16.00;99.90
52034;DHT22;38045;52.988;6.536;2022-08-19T00:30:51;16.00;99.90
52034;DHT22;38045;52.988;6.536;2022-08-19T00:33:18;16.00;99.90
52034;DHT22;38045;52.988;6.536;2022-08-19T00:35:44;16.00;99.90
52034;DHT22;38045;52.988;6.536;2022-08-19T00:38:10;16.10;99.90
52034;DHT22;38045;52.988;6.536;2022-08-19T00:40:35;15.90;99.90
52034;DHT22;38045;52.988;6.536;2022-08-19T00:43:01;15.90;99.90
52034;DHT22;38045;52.988;6.536;2022-08-19T00:45:32;15.90;99.90
52034;DHT22;38045;52.988;6.536;2022-08-19T00:47:59;15.80;99.90
52034;DHT22;38045;52.988;6.536;2022-08-19T00:50:29;15.80;99.90
52034;DHT22;38045;52.988;6.536;2022-08-19T00:52:55;15.70;99.90
52034;DHT22;38045;52.988;6.536;2022-08-19T00:55:24;15.70;99.90
52034;DHT22;38045;52.988;6.536;2022-08-19T00:57:55;15.70;99.90
52034;DHT22;38045;52.988;6.536;2022-08-19T01:00:22;15.70;99.90
52034;DHT22;38045;52.988;6.536;2022-08-19T01:02:48;15.60;99.90
52034;DHT22;38045;52.988;6.536;2022-08-19T01:05:17;15.60;99.90
52034;DHT22;38045;52.988;6.536;2022-08-19T01:07:46;15.60;99.90
52034;DHT22;38045;52.988;6.536;2022-08-19T01:10:16;15.60;99.90
52034;DHT22;38045;52.988;6.536;2022-08-19T01:12:44;15.50;99.90
52034;DHT22;38045;52.988;6.536;2022-08-19T01:15:14;15.50;99.90
52034;DHT22;38045;52.988;6.536;2022-08-19T01:17:41;15.50;99.90
52034;DHT22;38045;52.988;6.536;2022-08-19T01:20:12;15.50;99.90
52034;DHT22;38045;52.988;6.536;2022-08-19T01:22:52;15.50;99.90
52034;DHT22;38045;52.988;6.536;2022-08-19T01:25:22;15.50;99.90
52034;DHT22;38045;52.988;6.536;2022-08-19T01:27:50;15.50;99.90
52034;DHT22;38045;52.988;6.536;2022-08-19T01:30:22;15.40;99.90
52034;DHT22;38045;52.988;6.536;2022-08-19T01:32:50;15.30;99.90
52034;DHT22;38045;52.988;6.536;2022-08-19T01:35:16;15.20;99.90
52034;DHT22;38045;52.988;6.536;2022-08-19T01:37:55;15.10;99.90
52034;DHT22;38045;52.988;6.536;2022-08-19T01:40:25;15.20;99.90
52034;DHT22;38045;52.988;6.536;2022-08-19T01:42:52;15.20;99.90
52034;DHT22;38045;52.988;6.536;2022-08-19T01:45:19;15.20;99.90
52034;DHT22;38045;52.988;6.536;2022-08-19T01:47:47;15.10;99.90
52034;DHT22;38045;52.988;6.536;2022-08-19T01:50:13;15.10;99.90
52034;DHT22;38045;52.988;6.536;2022-08-19T01:52:41;15.10;99.90
52034;DHT22;38045;52.988;6.536;2022-08-19T01:55:10;15.10;99.90
52034;DHT22;38045;52.988;6.536;2022-08-19T01:57:37;15.10;99.90
52034;DHT22;38045;52.988;6.536;2022-08-19T02:00:08;15.00;99.90
52034;DHT22;38045;52.988;6.536;2022-08-19T02:02:34;15.00;99.90
52034;DHT22;38045;52.988;6.536;2022-08-19T02:04:59;15.00;99.90
52034;DHT22;38045;52.988;6.536;2022-08-19T02:07:25;15.00;99.90
52034;DHT22;38045;52.988;6.536;2022-08-19T02:09:51;14.90;99.90
52034;DHT22;38045;52.988;6.536;2022-08-19T02:12:16;14.90;99.90
52034;DHT22;38045;52.988;6.536;2022-08-19T02:14:42;14.90;99.90
52034;DHT22;38045;52.988;6.536;2022-08-19T02:17:08;14.90;99.90
52034;DHT22;38045;52.988;6.536;2022-08-19T02:19:33;14.90;99.90
52034;DHT22;38045;52.988;6.536;2022-08-19T02:21:59;14.90;99.90
52034;DHT22;38045;52.988;6.536;2022-08-19T02:24:25;14.90;99.90
52034;DHT22;38045;52.988;6.536;2022-08-19T02:26:51;14.90;99.90
52034;DHT22;38045;52.988;6.536;2022-08-19T02:29:17;15.00;99.90
52034;DHT22;38045;52.988;6.536;2022-08-19T02:31:42;14.90;99.90
52034;DHT22;38045;52.988;6.536;2022-08-19T02:34:08;14.80;99.90
52034;DHT22;38045;52.988;6.536;2022-08-19T02:36:34;14.80;99.90
52034;DHT22;38045;52.988;6.536;2022-08-19T02:38:59;14.80;99.90
52034;DHT22;38045;52.988;6.536;2022-08-19T02:41:30;14.70;99.90
52034;DHT22;38045;52.988;6.536;2022-08-19T02:43:58;14.70;99.90
52034;DHT22;38045;52.988;6.536;2022-08-19T02:46:26;14.70;99.90
52034;DHT22;38045;52.988;6.536;2022-08-19T02:48:55;14.70;99.90
52034;DHT22;38045;52.988;6.536;2022-08-19T02:51:29;14.70;99.90
52034;DHT22;38045;52.988;6.536;2022-08-19T02:53:56;14.80;99.90
52034;DHT22;38045;52.988;6.536;2022-08-19T02:56:22;14.80;99.90
52034;DHT22;38045;52.988;6.536;2022-08-19T02:58:49;14.80;99.90
52034;DHT22;38045;52.988;6.536;2022-08-19T03:01:24;14.80;99.90
52034;DHT22;38045;52.988;6.536;2022-08-19T03:03:51;14.80;99.90
52034;DHT22;38045;52.988;6.536;2022-08-19T03:06:17;14.80;99.90
52034;DHT22;38045;52.988;6.536;2022-08-19T03:08:45;14.80;99.90
52034;DHT22;38045;52.988;6.536;2022-08-19T03:11:22;14.70;99.90
52034;DHT22;38045;52.988;6.536;2022-08-19T03:13:48;14.70;99.90
52034;DHT22;38045;52.988;6.536;2022-08-19T03:16:18;14.70;99.90
52034;DHT22;38045;52.988;6.536;2022-08-19T03:18:44;14.70;99.90
52034;DHT22;38045;52.988;6.536;2022-08-19T03:21:18;14.70;99.90
52034;DHT22;38045;52.988;6.536;2022-08-19T03:23:44;14.70;99.90
52034;DHT22;38045;52.988;6.536;2022-08-19T03:26:10;14.70;99.90
52034;DHT22;38045;52.988;6.536;2022-08-19T03:28:36;14.70;99.90
52034;DHT22;38045;52.988;6.536;2022-08-19T03:31:06;14.70;99.90
52034;DHT22;38045;52.988;6.536;2022-08-19T03:33:33;14.60;99.90
52034;DHT22;38045;52.988;6.536;2022-08-19T03:38:35;14.60;99.90
52034;DHT22;38045;52.988;6.536;2022-08-19T03:41:07;14.60;99.90
52034;DHT22;38045;52.988;6.536;2022-08-19T03:43:38;14.60;99.90
52034;DHT22;38045;52.988;6.536;2022-08-19T03:46:11;14.60;99.90
52034;DHT22;38045;52.988;6.536;2022-08-19T03:48:38;14.60;99.90
52034;DHT22;38045;52.988;6.536;2022-08-19T03:51:05;14.60;99.90
52034;DHT22;38045;52.988;6.536;2022-08-19T03:53:31;14.60;99.90
52034;DHT22;38045;52.988;6.536;2022-08-19T03:55:58;14.60;99.90
52034;DHT22;38045;52.988;6.536;2022-08-19T03:58:25;14.50;99.90
52034;DHT22;38045;52.988;6.536;2022-08-19T04:00:52;14.50;99.90
52034;DHT22;38045;52.988;6.536;2022-08-19T04:03:18;14.40;99.90
52034;DHT22;38045;52.988;6.536;2022-08-19T04:05:44;14.40;99.90
52034;DHT22;38045;52.988;6.536;2022-08-19T04:08:10;14.30;99.90
52034;DHT22;38045;52.988;6.536;2022-08-19T04:10:37;14.40;99.90
52034;DHT22;38045;52.988;6.536;2022-08-19T04:13:04;14.40;99.90
52034;DHT22;38045;52.988;6.536;2022-08-19T04:15:31;14.40;99.90
52034;DHT22;38045;52.988;6.536;2022-08-19T04:18:01;14.30;99.90
52034;DHT22;38045;52.988;6.536;2022-08-19T04:20:27;14.30;99.90
52034;DHT22;38045;52.988;6.536;2022-08-19T04:22:52;14.30;99.90
52034;DHT22;38045;52.988;6.536;2022-08-19T04:25:18;14.30;99.90
52034;DHT22;38045;52.988;6.536;2022-08-19T04:27:44;14.30;99.90
52034;DHT22;38045;52.988;6.536;2022-08-19T04:30:13;14.30;99.90
52034;DHT22;38045;52.988;6.536;2022-08-19T04:32:38;14.30;99.90
52034;DHT22;38045;52.988;6.536;2022-08-19T04:35:04;14.30;99.90
52034;DHT22;38045;52.988;6.536;2022-08-19T04:37:30;14.30;99.90
52034;DHT22;38045;52.988;6.536;2022-08-19T04:39:58;14.30;99.90
52034;DHT22;38045;52.988;6.536;2022-08-19T04:42:42;14.30;99.90
52034;DHT22;38045;52.988;6.536;2022-08-19T04:45:10;14.30;99.90
52034;DHT22;38045;52.988;6.536;2022-08-19T04:47:37;14.20;99.90
52034;DHT22;38045;52.988;6.536;2022-08-19T04:50:03;14.20;99.90
52034;DHT22;38045;52.988;6.536;2022-08-19T04:52:29;14.20;99.90
52034;DHT22;38045;52.988;6.536;2022-08-19T04:54:57;14.20;99.90
52034;DHT22;38045;52.988;6.536;2022-08-19T04:57:23;14.20;99.90
52034;DHT22;38045;52.988;6.536;2022-08-19T04:59:49;14.20;99.90
52034;DHT22;38045;52.988;6.536;2022-08-19T05:02:18;14.20;99.90
52034;DHT22;38045;52.988;6.536;2022-08-19T05:04:44;14.20;99.90
52034;DHT22;38045;52.988;6.536;2022-08-19T05:07:09;14.20;99.90
52034;DHT22;38045;52.988;6.536;2022-08-19T05:09:35;14.20;99.90
52034;DHT22;38045;52.988;6.536;2022-08-19T05:12:01;14.20;99.90
52034;DHT22;38045;52.988;6.536;2022-08-19T05:14:26;14.30;99.90
52034;DHT22;38045;52.988;6.536;2022-08-19T05:16:52;14.30;99.90
52034;DHT22;38045;52.988;6.536;2022-08-19T05:19:18;14.30;99.90
52034;DHT22;38045;52.988;6.536;2022-08-19T05:22:02;14.40;99.90
52034;DHT22;38045;52.988;6.536;2022-08-19T05:24:46;14.40;99.90
52034;DHT22;38045;52.988;6.536;2022-08-19T05:27:12;14.40;99.90
52034;DHT22;38045;52.988;6.536;2022-08-19T05:29:37;14.50;99.90
52034;DHT22;38045;52.988;6.536;2022-08-19T05:32:05;14.60;99.90
52034;DHT22;38045;52.988;6.536;2022-08-19T05:34:33;14.60;99.90
52034;DHT22;38045;52.988;6.536;2022-08-19T05:37:02;14.70;99.90
52034;DHT22;38045;52.988;6.536;2022-08-19T05:39:30;14.80;99.90
52034;DHT22;38045;52.988;6.536;2022-08-19T05:41:59;14.80;99.90
52034;DHT22;38045;52.988;6.536;2022-08-19T05:44:26;15.00;99.90
52034;DHT22;38045;52.988;6.536;2022-08-19T05:46:52;15.10;99.90
52034;DHT22;38045;52.988;6.536;2022-08-19T05:49:20;15.20;99.90
52034;DHT22;38045;52.988;6.536;2022-08-19T05:51:47;15.30;99.90
52034;DHT22;38045;52.988;6.536;2022-08-19T05:54:12;15.40;99.90
52034;DHT22;38045;52.988;6.536;2022-08-19T05:56:39;15.50;99.90
52034;DHT22;38045;52.988;6.536;2022-08-19T05:59:06;15.60;99.90
52034;DHT22;38045;52.988;6.536;2022-08-19T06:01:37;15.70;99.90
52034;DHT22;38045;52.988;6.536;2022-08-19T06:04:04;15.80;99.90
52034;DHT22;38045;52.988;6.536;2022-08-19T06:06:30;15.90;99.90
52034;DHT22;38045;52.988;6.536;2022-08-19T06:08:56;15.90;99.90
52034;DHT22;38045;52.988;6.536;2022-08-19T06:11:25;16.00;99.90
52034;DHT22;38045;52.988;6.536;2022-08-19T06:14:00;16.00;99.90
52034;DHT22;38045;52.988;6.536;2022-08-19T06:16:27;16.10;99.90
52034;DHT22;38045;52.988;6.536;2022-08-19T06:18:56;16.20;99.90
52034;DHT22;38045;52.988;6.536;2022-08-19T06:21:23;16.30;99.90
52034;DHT22;38045;52.988;6.536;2022-08-19T06:23:50;16.30;99.90
52034;DHT22;38045;52.988;6.536;2022-08-19T06:26:18;16.40;99.90
52034;DHT22;38045;52.988;6.536;2022-08-19T06:28:44;16.50;99.90
52034;DHT22;38045;52.988;6.536;2022-08-19T06:31:16;16.60;99.90
52034;DHT22;38045;52.988;6.536;2022-08-19T06:33:44;16.70;99.90
52034;DHT22;38045;52.988;6.536;2022-08-19T06:36:37;16.70;99.90
52034;DHT22;38045;52.988;6.536;2022-08-19T06:39:05;16.90;99.90
52034;DHT22;38045;52.988;6.536;2022-08-19T06:41:35;17.00;99.90
52034;DHT22;38045;52.988;6.536;2022-08-19T06:44:01;17.10;99.90
52034;DHT22;38045;52.988;6.536;2022-08-19T06:46:26;17.20;99.90
52034;DHT22;38045;52.988;6.536;2022-08-19T06:48:52;17.30;99.90
52034;DHT22;38045;52.988;6.536;2022-08-19T06:51:20;17.40;99.90
52034;DHT22;38045;52.988;6.536;2022-08-19T06:53:47;17.50;99.90
52034;DHT22;38045;52.988;6.536;2022-08-19T06:56:14;17.60;99.90
52034;DHT22;38045;52.988;6.536;2022-08-19T06:58:41;17.70;99.90
52034;DHT22;38045;52.988;6.536;2022-08-19T07:01:07;17.90;99.90
52034;DHT22;38045;52.988;6.536;2022-08-19T07:03:34;18.00;99.90
52034;DHT22;38045;52.988;6.536;2022-08-19T07:06:05;18.20;99.90
52034;DHT22;38045;52.988;6.536;2022-08-19T07:08:31;18.40;99.90
52034;DHT22;38045;52.988;6.536;2022-08-19T07:10:57;18.50;99.90
52034;DHT22;38045;52.988;6.536;2022-08-19T07:13:24;18.60;99.90
52034;DHT22;38045;52.988;6.536;2022-08-19T07:15:49;18.80;99.90
52034;DHT22;38045;52.988;6.536;2022-08-19T07:18:19;18.80;99.90
52034;DHT22;38045;52.988;6.536;2022-08-19T07:20:46;18.90;99.90
52034;DHT22;38045;52.988;6.536;2022-08-19T07:23:12;19.00;99.90
52034;DHT22;38045;52.988;6.536;2022-08-19T07:25:38;19.10;99.90
52034;DHT22;38045;52.988;6.536;2022-08-19T07:28:03;19.20;99.90
52034;DHT22;38045;52.988;6.536;2022-08-19T07:30:30;19.30;99.90
52034;DHT22;38045;52.988;6.536;2022-08-19T07:32:55;19.40;99.90
52034;DHT22;38045;52.988;6.536;2022-08-19T07:35:22;19.50;99.90
52034;DHT22;38045;52.988;6.536;2022-08-19T07:37:48;19.50;99.90
52034;DHT22;38045;52.988;6.536;2022-08-19T07:40:14;19.60;99.90
52034;DHT22;38045;52.988;6.536;2022-08-19T07:42:40;19.80;99.90
52034;DHT22;38045;52.988;6.536;2022-08-19T07:45:07;19.80;99.90
52034;DHT22;38045;52.988;6.536;2022-08-19T07:47:33;19.90;99.90
52034;DHT22;38045;52.988;6.536;2022-08-19T07:49:59;20.10;99.90
52034;DHT22;38045;52.988;6.536;2022-08-19T07:52:24;20.20;99.90
52034;DHT22;38045;52.988;6.536;2022-08-19T07:54:50;20.40;99.90
52034;DHT22;38045;52.988;6.536;2022-08-19T07:57:16;20.50;99.90
52034;DHT22;38045;52.988;6.536;2022-08-19T07:59:42;20.60;99.90
52034;DHT22;38045;52.988;6.536;2022-08-19T08:02:09;20.70;99.90
52034;DHT22;38045;52.988;6.536;2022-08-19T08:04:34;20.80;99.90
52034;DHT22;38045;52.988;6.536;2022-08-19T08:07:19;20.90;99.90
52034;DHT22;38045;52.988;6.536;2022-08-19T08:10:05;20.90;99.90
52034;DHT22;38045;52.988;6.536;2022-08-19T08:12:35;21.00;99.90
52034;DHT22;38045;52.988;6.536;2022-08-19T08:15:09;21.10;99.90
52034;DHT22;38045;52.988;6.536;2022-08-19T08:17:35;21.20;99.90
52034;DHT22;38045;52.988;6.536;2022-08-19T08:20:04;21.30;99.90
52034;DHT22;38045;52.988;6.536;2022-08-19T08:22:32;21.50;99.90
52034;DHT22;38045;52.988;6.536;2022-08-19T08:25:18;21.60;99.90
52034;DHT22;38045;52.988;6.536;2022-08-19T08:27:46;21.70;99.90
52034;DHT22;38045;52.988;6.536;2022-08-19T08:30:18;21.90;99.90
52034;DHT22;38045;52.988;6.536;2022-08-19T08:32:44;22.00;99.90
52034;DHT22;38045;52.988;6.536;2022-08-19T08:35:13;22.10;99.90
52034;DHT22;38045;52.988;6.536;2022-08-19T08:37:39;22.20;99.90
52034;DHT22;38045;52.988;6.536;2022-08-19T08:42:50;22.40;99.90
52034;DHT22;38045;52.988;6.536;2022-08-19T08:45:17;22.40;99.90
52034;DHT22;38045;52.988;6.536;2022-08-19T08:47:47;22.50;99.90
52034;DHT22;38045;52.988;6.536;2022-08-19T08:50:20;22.60;99.90
52034;DHT22;38045;52.988;6.536;2022-08-19T08:52:51;22.60;99.90
52034;DHT22;38045;52.988;6.536;2022-08-19T08:55:21;22.70;99.90
52034;DHT22;38045;52.988;6.536;2022-08-19T09:00:38;22.90;99.90
52034;DHT22;38045;52.988;6.536;2022-08-19T09:03:16;22.90;99.90
52034;DHT22;38045;52.988;6.536;2022-08-19T09:11:08;23.00;99.90
52034;DHT22;38045;52.988;6.536;2022-08-19T09:14:05;22.90;99.90
52034;DHT22;38045;52.988;6.536;2022-08-19T09:16:34;23.00;99.90
52034;DHT22;38045;52.988;6.536;2022-08-19T09:19:05;23.10;99.90
52034;DHT22;38045;52.988;6.536;2022-08-19T09:21:31;23.20;99.90
52034;DHT22;38045;52.988;6.536;2022-08-19T09:23:56;23.30;99.90
52034;DHT22;38045;52.988;6.536;2022-08-19T09:26:24;23.40;99.90
52034;DHT22;38045;52.988;6.536;2022-08-19T09:28:51;23.50;99.90
52034;DHT22;38045;52.988;6.536;2022-08-19T09:31:26;23.50;99.90
52034;DHT22;38045;52.988;6.536;2022-08-19T09:33:53;23.50;99.90
52034;DHT22;38045;52.988;6.536;2022-08-19T09:36:24;23.60;99.90
52034;DHT22;38045;52.988;6.536;2022-08-19T09:38:51;23.80;99.90
52034;DHT22;38045;52.988;6.536;2022-08-19T09:41:19;24.00;99.90
52034;DHT22;38045;52.988;6.536;2022-08-19T09:43:47;23.90;99.90
52034;DHT22;38045;52.988;6.536;2022-08-19T09:46:13;24.00;99.90
52034;DHT22;38045;52.988;6.536;2022-08-19T09:48:40;24.10;99.90
52034;DHT22;38045;52.988;6.536;2022-08-19T09:51:09;24.10;99.90
52034;DHT22;38045;52.988;6.536;2022-08-19T09:53:35;24.20;99.90
52034;DHT22;38045;52.988;6.536;2022-08-19T09:56:02;24.30;99.90
52034;DHT22;38045;52.988;6.536;2022-08-19T09:58:28;24.40;99.90
52034;DHT22;38045;52.988;6.536;2022-08-19T10:00:55;24.50;99.90
52034;DHT22;38045;52.988;6.536;2022-08-19T10:03:21;24.40;99.90
52034;DHT22;38045;52.988;6.536;2022-08-19T10:05:47;24.50;99.90
52034;DHT22;38045;52.988;6.536;2022-08-19T10:08:22;24.50;99.90
52034;DHT22;38045;52.988;6.536;2022-08-19T10:10:48;24.60;99.90
52034;DHT22;38045;52.988;6.536;2022-08-19T10:13:16;24.70;99.90
52034;DHT22;38045;52.988;6.536;2022-08-19T10:15:43;24.80;99.90
52034;DHT22;38045;52.988;6.536;2022-08-19T10:18:09;25.00;99.90
52034;DHT22;38045;52.988;6.536;2022-08-19T10:20:34;25.00;99.90
52034;DHT22;38045;52.988;6.536;2022-08-19T10:23:03;25.10;99.90
52034;DHT22;38045;52.988;6.536;2022-08-19T10:25:29;25.20;99.90
52034;DHT22;38045;52.988;6.536;2022-08-19T10:27:55;25.20;99.90
52034;DHT22;38045;52.988;6.536;2022-08-19T10:30:20;25.20;99.90
52034;DHT22;38045;52.988;6.536;2022-08-19T10:32:46;25.20;99.90
52034;DHT22;38045;52.988;6.536;2022-08-19T10:35:13;25.20;99.90
52034;DHT22;38045;52.988;6.536;2022-08-19T10:37:39;25.40;99.90
52034;DHT22;38045;52.988;6.536;2022-08-19T10:40:07;25.60;99.90
52034;DHT22;38045;52.988;6.536;2022-08-19T10:42:33;25.60;99.90
52034;DHT22;38045;52.988;6.536;2022-08-19T10:44:59;25.60;99.90
52034;DHT22;38045;52.988;6.536;2022-08-19T10:47:25;25.60;99.90
52034;DHT22;38045;52.988;6.536;2022-08-19T10:49:54;25.60;99.90
52034;DHT22;38045;52.988;6.536;2022-08-19T10:52:43;25.80;99.90
52034;DHT22;38045;52.988;6.536;2022-08-19T10:55:09;25.80;99.90
52034;DHT22;38045;52.988;6.536;2022-08-19T10:57:53;26.10;99.90
52034;DHT22;38045;52.988;6.536;2022-08-19T11:00:20;26.30;99.90
52034;DHT22;38045;52.988;6.536;2022-08-19T11:02:48;26.40;99.90
52034;DHT22;38045;52.988;6.536;2022-08-19T11:05:14;26.50;99.90
52034;DHT22;38045;52.988;6.536;2022-08-19T11:07:41;26.30;99.90
52034;DHT22;38045;52.988;6.536;2022-08-19T11:10:08;26.30;99.90
52034;DHT22;38045;52.988;6.536;2022-08-19T11:12:37;26.20;99.90
52034;DHT22;38045;52.988;6.536;2022-08-19T11:15:08;26.10;99.90
52034;DHT22;38045;52.988;6.536;2022-08-19T11:17:37;26.10;99.90
52034;DHT22;38045;52.988;6.536;2022-08-19T11:20:06;26.10;99.90
52034;DHT22;38045;52.988;6.536;2022-08-19T11:22:32;26.40;99.90
52034;DHT22;38045;52.988;6.536;2022-08-19T11:24:57;26.50;99.90
52034;DHT22;38045;52.988;6.536;2022-08-19T11:27:23;26.50;99.90
52034;DHT22;38045;52.988;6.536;2022-08-19T11:29:49;26.40;99.90
52034;DHT22;38045;52.988;6.536;2022-08-19T11:32:14;26.40;99.90
52034;DHT22;38045;52.988;6.536;2022-08-19T11:34:41;26.50;99.90
52034;DHT22;38045;52.988;6.536;2022-08-19T11:37:06;26.60;99.90
52034;DHT22;38045;52.988;6.536;2022-08-19T11:39:34;26.80;99.90
52034;DHT22;38045;52.988;6.536;2022-08-19T11:42:03;26.70;99.90
52034;DHT22;38045;52.988;6.536;2022-08-19T11:44:49;26.60;99.90
52034;DHT22;38045;52.988;6.536;2022-08-19T11:47:15;26.60;99.90
52034;DHT22;38045;52.988;6.536;2022-08-19T11:49:40;26.60;99.90
52034;DHT22;38045;52.988;6.536;2022-08-19T11:52:07;26.60;99.90
52034;DHT22;38045;52.988;6.536;2022-08-19T11:54:33;26.60;99.90
52034;DHT22;38045;52.988;6.536;2022-08-19T11:56:58;26.60;99.90
52034;DHT22;38045;52.988;6.536;2022-08-19T11:59:24;26.60;99.90
52034;DHT22;38045;52.988;6.536;2022-08-19T12:01:52;26.50;99.90
52034;DHT22;38045;52.988;6.536;2022-08-19T12:04:17;26.40;99.90
52034;DHT22;38045;52.988;6.536;2022-08-19T12:06:43;26.40;99.90
52034;DHT22;38045;52.988;6.536;2022-08-19T12:09:10;26.40;99.90
52034;DHT22;38045;52.988;6.536;2022-08-19T12:11:36;26.50;99.90
52034;DHT22;38045;52.988;6.536;2022-08-19T12:14:02;26.60;99.90
52034;DHT22;38045;52.988;6.536;2022-08-19T12:16:29;26.50;99.90
52034;DHT22;38045;52.988;6.536;2022-08-19T12:18:56;26.40;99.90
52034;DHT22;38045;52.988;6.536;2022-08-19T12:21:26;26.40;99.90
52034;DHT22;38045;52.988;6.536;2022-08-19T12:23:56;26.60;99.90
52034;DHT22;38045;52.988;6.536;2022-08-19T12:26:24;26.70;99.90
52034;DHT22;38045;52.988;6.536;2022-08-19T12:28:50;26.80;99.90
52034;DHT22;38045;52.988;6.536;2022-08-19T12:31:15;26.70;99.90
52034;DHT22;38045;52.988;6.536;2022-08-19T12:33:42;27.00;99.90
52034;DHT22;38045;52.988;6.536;2022-08-19T12:36:10;27.10;99.90
52034;DHT22;38045;52.988;6.536;2022-08-19T12:38:36;27.20;99.90
52034;DHT22;38045;52.988;6.536;2022-08-19T12:41:03;27.40;99.90
52034;DHT22;38045;52.988;6.536;2022-08-19T12:43:31;27.60;99.90
52034;DHT22;38045;52.988;6.536;2022-08-19T12:45:57;27.70;99.40
52034;DHT22;38045;52.988;6.536;2022-08-19T12:48:23;27.60;98.20
52034;DHT22;38045;52.988;6.536;2022-08-19T12:50:48;27.70;99.50
52034;DHT22;38045;52.988;6.536;2022-08-19T12:53:14;27.60;98.80
52034;DHT22;38045;52.988;6.536;2022-08-19T12:55:41;27.70;99.30
52034;DHT22;38045;52.988;6.536;2022-08-19T12:58:08;27.80;98.80
52034;DHT22;38045;52.988;6.536;2022-08-19T13:00:33;27.70;99.30
52034;DHT22;38045;52.988;6.536;2022-08-19T13:03:00;27.70;99.20
52034;DHT22;38045;52.988;6.536;2022-08-19T13:05:28;27.80;99.10
52034;DHT22;38045;52.988;6.536;2022-08-19T13:07:56;27.80;98.50
52034;DHT22;38045;52.988;6.536;2022-08-19T13:10:23;27.70;98.50
52034;DHT22;38045;52.988;6.536;2022-08-19T13:12:50;27.60;98.80
52034;DHT22;38045;52.988;6.536;2022-08-19T13:15:17;27.60;98.40
52034;DHT22;38045;52.988;6.536;2022-08-19T13:17:46;27.50;98.60
52034;DHT22;38045;52.988;6.536;2022-08-19T13:20:15;27.40;98.60
52034;DHT22;38045;52.988;6.536;2022-08-19T13:22:41;27.10;98.80
52034;DHT22;38045;52.988;6.536;2022-08-19T13:25:08;27.00;98.90
52034;DHT22;38045;52.988;6.536;2022-08-19T13:27:35;26.80;99.40
52034;DHT22;38045;52.988;6.536;2022-08-19T13:30:02;26.60;99.50
52034;DHT22;38045;52.988;6.536;2022-08-19T13:32:46;26.70;99.80
52034;DHT22;38045;52.988;6.536;2022-08-19T13:35:30;26.60;99.90
52034;DHT22;38045;52.988;6.536;2022-08-19T13:37:56;26.40;99.90
52034;DHT22;38045;52.988;6.536;2022-08-19T13:40:23;26.10;99.90
52034;DHT22;38045;52.988;6.536;2022-08-19T13:42:53;25.70;99.90
52034;DHT22;38045;52.988;6.536;2022-08-19T13:45:22;25.40;99.90
52034;DHT22;38045;52.988;6.536;2022-08-19T13:47:51;25.20;99.90
52034;DHT22;38045;52.988;6.536;2022-08-19T13:50:19;25.00;99.90
52034;DHT22;38045;52.988;6.536;2022-08-19T13:52:46;24.80;99.90
52034;DHT22;38045;52.988;6.536;2022-08-19T13:55:13;24.60;99.90
52034;DHT22;38045;52.988;6.536;2022-08-19T13:57:39;24.50;99.90
52034;DHT22;38045;52.988;6.536;2022-08-19T14:00:07;24.30;99.90
52034;DHT22;38045;52.988;6.536;2022-08-19T14:02:35;24.20;99.90
52034;DHT22;38045;52.988;6.536;2022-08-19T14:05:03;24.20;99.90
52034;DHT22;38045;52.988;6.536;2022-08-19T14:07:29;24.10;99.90
52034;DHT22;38045;52.988;6.536;2022-08-19T14:09:54;24.00;99.90
52034;DHT22;38045;52.988;6.536;2022-08-19T14:12:21;24.10;99.90
52034;DHT22;38045;52.988;6.536;2022-08-19T14:14:46;24.20;99.90
52034;DHT22;38045;52.988;6.536;2022-08-19T14:17:12;24.40;99.90
52034;DHT22;38045;52.988;6.536;2022-08-19T14:19:38;24.50;99.90
52034;DHT22;38045;52.988;6.536;2022-08-19T14:22:03;24.60;99.90
52034;DHT22;38045;52.988;6.536;2022-08-19T14:24:30;24.80;99.90
52034;DHT22;38045;52.988;6.536;2022-08-19T14:26:58;24.90;99.90
52034;DHT22;38045;52.988;6.536;2022-08-19T14:29:24;25.10;99.90
52034;DHT22;38045;52.988;6.536;2022-08-19T14:31:49;25.10;99.90
52034;DHT22;38045;52.988;6.536;2022-08-19T14:34:15;25.00;99.90
52034;DHT22;38045;52.988;6.536;2022-08-19T14:36:41;24.90;99.90
52034;DHT22;38045;52.988;6.536;2022-08-19T14:39:07;24.80;99.90
52034;DHT22;38045;52.988;6.536;2022-08-19T14:41:32;24.80;99.90
52034;DHT22;38045;52.988;6.536;2022-08-19T14:43:58;24.60;99.90
52034;DHT22;38045;52.988;6.536;2022-08-19T14:46:27;24.60;99.90
52034;DHT22;38045;52.988;6.536;2022-08-19T14:48:54;24.60;99.90
52034;DHT22;38045;52.988;6.536;2022-08-19T14:51:21;24.40;99.90
52034;DHT22;38045;52.988;6.536;2022-08-19T14:53:47;24.20;99.90
52034;DHT22;38045;52.988;6.536;2022-08-19T14:56:20;24.20;99.90
52034;DHT22;38045;52.988;6.536;2022-08-19T14:58:46;24.10;99.90
52034;DHT22;38045;52.988;6.536;2022-08-19T15:01:13;24.10;99.90
52034;DHT22;38045;52.988;6.536;2022-08-19T15:03:39;24.20;99.90
52034;DHT22;38045;52.988;6.536;2022-08-19T15:06:07;24.30;99.90
52034;DHT22;38045;52.988;6.536;2022-08-19T15:08:35;24.30;99.90
52034;DHT22;38045;52.988;6.536;2022-08-19T15:11:02;24.50;99.90
52034;DHT22;38045;52.988;6.536;2022-08-19T15:13:32;24.50;99.90
52034;DHT22;38045;52.988;6.536;2022-08-19T15:15:58;24.50;99.90
52034;DHT22;38045;52.988;6.536;2022-08-19T15:18:23;24.60;99.90
52034;DHT22;38045;52.988;6.536;2022-08-19T15:20:49;24.60;99.90
52034;DHT22;38045;52.988;6.536;2022-08-19T15:23:16;24.60;99.90
52034;DHT22;38045;52.988;6.536;2022-08-19T15:25:42;24.60;99.90
52034;DHT22;38045;52.988;6.536;2022-08-19T15:28:10;24.80;99.90
52034;DHT22;38045;52.988;6.536;2022-08-19T15:30:39;24.80;99.90
52034;DHT22;38045;52.988;6.536;2022-08-19T15:33:05;24.70;99.90
52034;DHT22;38045;52.988;6.536;2022-08-19T15:35:31;24.70;99.90
52034;DHT22;38045;52.988;6.536;2022-08-19T15:37:57;24.60;99.90
52034;DHT22;38045;52.988;6.536;2022-08-19T15:40:24;24.50;99.90
52034;DHT22;38045;52.988;6.536;2022-08-19T15:42:51;24.50;99.90
52034;DHT22;38045;52.988;6.536;2022-08-19T15:45:19;24.40;99.90
52034;DHT22;38045;52.988;6.536;2022-08-19T15:47:45;24.30;99.90